sensor_id;sensor_type;location;lat;lon;timestamp;pressure;altitude;pressure_sealevel;temperature;humidity
59407;BME280;45208;32.616;-115.472;2022-07-24T00:01:33;100469.97;;;47.16;15.41
59407;BME280;45208;32.616;-115.472;2022-07-24T00:03:59;100460.47;;;47.54;15.41
59407;BME280;45208;32.616;-115.472;2022-07-24T00:06:27;100467.38;;;46.95;15.38
59407;BME280;45208;32.616;-115.472;2022-07-24T00:08:54;100465.03;;;46.94;15.71
59407;BME280;45208;32.616;-115.472;2022-07-24T00:11:21;100458.56;;;45.89;16.76
59407;BME280;45208;32.616;-115.472;2022-07-24T00:13:48;100468.94;;;45.75;16.92
59407;BME280;45208;32.616;-115.472;2022-07-24T00:16:15;100453.75;;;47.02;15.38
59407;BME280;45208;32.616;-115.472;2022-07-24T00:18:41;100451.31;;;47.50;15.16
59407;BME280;45208;32.616;-115.472;2022-07-24T00:21:08;100451.66;;;46.57;15.83
59407;BME280;45208;32.616;-115.472;2022-07-24T00:23:35;100452.16;;;47.12;15.99
59407;BME280;45208;32.616;-115.472;2022-07-24T00:26:02;100443.25;;;47.32;15.83
59407;BME280;45208;32.616;-115.472;2022-07-24T00:28:28;100438.28;;;47.21;15.40
59407;BME280;45208;32.616;-115.472;2022-07-24T00:30:56;100437.25;;;46.29;16.23
59407;BME280;45208;32.616;-115.472;2022-07-24T00:33:23;100431.03;;;46.81;16.15
59407;BME280;45208;32.616;-115.472;2022-07-24T00:35:49;100433.66;;;46.79;15.45
59407;BME280;45208;32.616;-115.472;2022-07-24T00:38:16;100427.56;;;47.22;15.53
59407;BME280;45208;32.616;-115.472;2022-07-24T00:40:43;100422.09;;;47.24;14.47
59407;BME280;45208;32.616;-115.472;2022-07-24T00:43:10;100430.75;;;46.79;15.47
59407;BME280;45208;32.616;-115.472;2022-07-24T00:45:39;100427.59;;;46.66;15.17
59407;BME280;45208;32.616;-115.472;2022-07-24T00:48:06;100428.59;;;46.13;16.46
59407;BME280;45208;32.616;-115.472;2022-07-24T00:50:33;100434.59;;;45.44;17.70
59407;BME280;45208;32.616;-115.472;2022-07-24T00:52:59;100435.03;;;45.26;17.97
59407;BME280;45208;32.616;-115.472;2022-07-24T00:55:27;100426.44;;;44.63;18.45
59407;BME280;45208;32.616;-115.472;2022-07-24T00:57:54;100431.81;;;44.49;19.03
59407;BME280;45208;32.616;-115.472;2022-07-24T01:00:22;100423.97;;;44.81;18.63
59407;BME280;45208;32.616;-115.472;2022-07-24T01:02:50;100414.19;;;44.94;18.44
59407;BME280;45208;32.616;-115.472;2022-07-24T01:05:17;100419.69;;;43.88;18.97
59407;BME280;45208;32.616;-115.472;2022-07-24T01:07:44;100429.38;;;43.70;19.48
59407;BME280;45208;32.616;-115.472;2022-07-24T01:10:12;100423.31;;;42.77;20.48
59407;BME280;45208;32.616;-115.472;2022-07-24T01:12:40;100429.81;;;42.93;20.47
59407;BME280;45208;32.616;-115.472;2022-07-24T01:15:09;100439.28;;;42.40;21.07
59407;BME280;45208;32.616;-115.472;2022-07-24T01:17:39;100439.88;;;42.73;20.96
59407;BME280;45208;32.616;-115.472;2022-07-24T01:20:07;100428.22;;;43.27;20.32
59407;BME280;45208;32.616;-115.472;2022-07-24T01:22:34;100438.91;;;42.76;21.22
59407;BME280;45208;32.616;-115.472;2022-07-24T01:25:01;100444.13;;;42.78;20.79
59407;BME280;45208;32.616;-115.472;2022-07-24T01:27:28;100431.38;;;42.35;22.13
59407;BME280;45208;32.616;-115.472;2022-07-24T01:29:55;100451.34;;;41.67;22.64
59407;BME280;45208;32.616;-115.472;2022-07-24T01:32:21;100442.13;;;42.25;22.18
59407;BME280;45208;32.616;-115.472;2022-07-24T01:34:48;100442.03;;;42.19;22.10
59407;BME280;45208;32.616;-115.472;2022-07-24T01:37:16;100445.06;;;42.16;22.03
59407;BME280;45208;32.616;-115.472;2022-07-24T01:39:42;100445.25;;;41.17;23.08
59407;BME280;45208;32.616;-115.472;2022-07-24T01:42:09;100464.75;;;41.09;22.92
59407;BME280;45208;32.616;-115.472;2022-07-24T01:44:36;100463.50;;;40.59;24.01
59407;BME280;45208;32.616;-115.472;2022-07-24T01:47:03;100452.72;;;40.63;23.84
59407;BME280;45208;32.616;-115.472;2022-07-24T01:49:32;100451.44;;;40.64;23.82
59407;BME280;45208;32.616;-115.472;2022-07-24T01:51:59;100467.28;;;40.65;24.44
59407;BME280;45208;32.616;-115.472;2022-07-24T01:54:26;100467.63;;;39.94;25.48
59407;BME280;45208;32.616;-115.472;2022-07-24T01:56:53;100471.09;;;39.88;24.49
59407;BME280;45208;32.616;-115.472;2022-07-24T01:59:20;100466.25;;;39.49;25.32
59407;BME280;45208;32.616;-115.472;2022-07-24T02:01:46;100468.88;;;39.25;26.29
59407;BME280;45208;32.616;-115.472;2022-07-24T02:04:13;100465.34;;;39.12;26.18
59407;BME280;45208;32.616;-115.472;2022-07-24T02:06:40;100491.13;;;38.86;26.30
59407;BME280;45208;32.616;-115.472;2022-07-24T02:09:07;100473.75;;;38.84;27.09
59407;BME280;45208;32.616;-115.472;2022-07-24T02:11:33;100481.53;;;38.93;27.17
59407;BME280;45208;32.616;-115.472;2022-07-24T02:14:00;100477.00;;;38.74;26.96
59407;BME280;45208;32.616;-115.472;2022-07-24T02:16:30;100480.63;;;38.52;27.26
59407;BME280;45208;32.616;-115.472;2022-07-24T02:18:57;100492.53;;;38.38;27.83
59407;BME280;45208;32.616;-115.472;2022-07-24T02:21:25;100504.22;;;38.05;28.22
59407;BME280;45208;32.616;-115.472;2022-07-24T02:23:52;100505.44;;;37.83;28.41
59407;BME280;45208;32.616;-115.472;2022-07-24T02:26:19;100507.72;;;37.75;28.57
59407;BME280;45208;32.616;-115.472;2022-07-24T02:28:45;100493.44;;;37.53;28.69
59407;BME280;45208;32.616;-115.472;2022-07-24T02:31:12;100511.47;;;37.34;28.88
59407;BME280;45208;32.616;-115.472;2022-07-24T02:33:39;100520.63;;;37.25;28.91
59407;BME280;45208;32.616;-115.472;2022-07-24T02:36:06;100517.91;;;37.09;28.52
59407;BME280;45208;32.616;-115.472;2022-07-24T02:38:34;100524.72;;;36.99;28.34
59407;BME280;45208;32.616;-115.472;2022-07-24T02:41:00;100526.50;;;36.92;28.79
59407;BME280;45208;32.616;-115.472;2022-07-24T02:43:27;100528.13;;;36.77;29.06
59407;BME280;45208;32.616;-115.472;2022-07-24T02:45:54;100535.03;;;36.64;29.54
59407;BME280;45208;32.616;-115.472;2022-07-24T02:48:21;100539.06;;;36.50;30.38
59407;BME280;45208;32.616;-115.472;2022-07-24T02:50:48;100535.38;;;36.37;30.83
59407;BME280;45208;32.616;-115.472;2022-07-24T02:53:14;100537.88;;;36.35;31.18
59407;BME280;45208;32.616;-115.472;2022-07-24T02:55:41;100537.31;;;36.23;31.34
59407;BME280;45208;32.616;-115.472;2022-07-24T02:58:08;100546.16;;;36.25;31.87
59407;BME280;45208;32.616;-115.472;2022-07-24T03:00:35;100550.00;;;36.19;31.96
59407;BME280;45208;32.616;-115.472;2022-07-24T03:03:02;100544.00;;;36.00;31.90
59407;BME280;45208;32.616;-115.472;2022-07-24T03:05:28;100555.41;;;35.97;32.67
59407;BME280;45208;32.616;-115.472;2022-07-24T03:07:55;100558.78;;;35.92;33.06
59407;BME280;45208;32.616;-115.472;2022-07-24T03:10:23;100558.31;;;35.77;33.74
59407;BME280;45208;32.616;-115.472;2022-07-24T03:12:50;100560.16;;;35.67;33.92
59407;BME280;45208;32.616;-115.472;2022-07-24T03:15:17;100560.00;;;35.58;34.04
59407;BME280;45208;32.616;-115.472;2022-07-24T03:17:55;100564.91;;;35.54;33.49
59407;BME280;45208;32.616;-115.472;2022-07-24T03:20:25;100570.03;;;35.43;33.75
59407;BME280;45208;32.616;-115.472;2022-07-24T03:22:52;100577.38;;;35.40;33.66
59407;BME280;45208;32.616;-115.472;2022-07-24T03:25:19;100569.53;;;35.28;33.24
59407;BME280;45208;32.616;-115.472;2022-07-24T03:27:49;100587.28;;;35.29;33.38
59407;BME280;45208;32.616;-115.472;2022-07-24T03:30:16;100574.69;;;35.13;33.54
59407;BME280;45208;32.616;-115.472;2022-07-24T03:32:44;100584.84;;;35.11;33.77
59407;BME280;45208;32.616;-115.472;2022-07-24T03:35:11;100583.88;;;35.01;33.46
59407;BME280;45208;32.616;-115.472;2022-07-24T03:37:38;100588.78;;;34.97;33.67
59407;BME280;45208;32.616;-115.472;2022-07-24T03:40:05;100591.25;;;34.95;34.10
59407;BME280;45208;32.616;-115.472;2022-07-24T03:42:32;100586.63;;;34.85;35.02
59407;BME280;45208;32.616;-115.472;2022-07-24T03:44:59;100594.81;;;34.76;35.98
59407;BME280;45208;32.616;-115.472;2022-07-24T03:47:26;100599.41;;;34.70;36.56
59407;BME280;45208;32.616;-115.472;2022-07-24T03:49:53;100592.59;;;34.67;36.50
59407;BME280;45208;32.616;-115.472;2022-07-24T03:52:19;100601.97;;;34.61;37.27
59407;BME280;45208;32.616;-115.472;2022-07-24T03:54:46;100592.00;;;34.56;37.50
59407;BME280;45208;32.616;-115.472;2022-07-24T03:57:13;100605.81;;;34.50;37.17
59407;BME280;45208;32.616;-115.472;2022-07-24T03:59:39;100621.19;;;34.46;37.50
59407;BME280;45208;32.616;-115.472;2022-07-24T04:02:06;100618.09;;;34.40;37.82
59407;BME280;45208;32.616;-115.472;2022-07-24T04:04:33;100623.47;;;34.31;38.52
59407;BME280;45208;32.616;-115.472;2022-07-24T04:07:00;100621.41;;;34.35;38.78
59407;BME280;45208;32.616;-115.472;2022-07-24T04:09:26;100619.97;;;34.23;38.45
59407;BME280;45208;32.616;-115.472;2022-07-24T04:11:53;100619.16;;;34.23;38.61
59407;BME280;45208;32.616;-115.472;2022-07-24T04:14:20;100624.59;;;34.14;39.07
59407;BME280;45208;32.616;-115.472;2022-07-24T04:16:47;100633.56;;;34.05;39.02
59407;BME280;45208;32.616;-115.472;2022-07-24T04:19:14;100633.09;;;34.10;38.52
59407;BME280;45208;32.616;-115.472;2022-07-24T04:21:40;100622.00;;;34.00;39.03
59407;BME280;45208;32.616;-115.472;2022-07-24T04:24:07;100650.50;;;34.05;39.25
59407;BME280;45208;32.616;-115.472;2022-07-24T04:26:34;100651.47;;;33.95;39.59
59407;BME280;45208;32.616;-115.472;2022-07-24T04:29:01;100649.47;;;33.96;39.59
59407;BME280;45208;32.616;-115.472;2022-07-24T04:31:33;100633.38;;;33.92;38.73
59407;BME280;45208;32.616;-115.472;2022-07-24T04:34:12;100650.44;;;33.82;39.16
59407;BME280;45208;32.616;-115.472;2022-07-24T04:36:39;100650.88;;;33.80;39.22
59407;BME280;45208;32.616;-115.472;2022-07-24T04:39:05;100650.81;;;33.84;39.17
59407;BME280;45208;32.616;-115.472;2022-07-24T04:41:32;100657.66;;;33.86;40.16
59407;BME280;45208;32.616;-115.472;2022-07-24T04:43:59;100661.34;;;33.80;40.31
59407;BME280;45208;32.616;-115.472;2022-07-24T04:46:26;100656.66;;;33.70;40.86
59407;BME280;45208;32.616;-115.472;2022-07-24T04:48:53;100657.22;;;33.57;40.91
59407;BME280;45208;32.616;-115.472;2022-07-24T04:51:20;100649.97;;;33.60;41.73
59407;BME280;45208;32.616;-115.472;2022-07-24T04:53:46;100655.63;;;33.56;41.80
59407;BME280;45208;32.616;-115.472;2022-07-24T04:56:14;100670.56;;;33.53;42.40
59407;BME280;45208;32.616;-115.472;2022-07-24T04:58:40;100654.25;;;33.41;43.07
59407;BME280;45208;32.616;-115.472;2022-07-24T05:01:07;100669.03;;;33.49;43.37
59407;BME280;45208;32.616;-115.472;2022-07-24T05:03:34;100672.81;;;33.35;43.38
59407;BME280;45208;32.616;-115.472;2022-07-24T05:06:01;100667.59;;;33.33;44.44
59407;BME280;45208;32.616;-115.472;2022-07-24T05:08:27;100671.34;;;33.23;44.49
59407;BME280;45208;32.616;-115.472;2022-07-24T05:10:54;100674.81;;;33.04;45.11
59407;BME280;45208;32.616;-115.472;2022-07-24T05:13:21;100666.03;;;32.95;45.67
59407;BME280;45208;32.616;-115.472;2022-07-24T05:15:48;100675.63;;;33.01;45.53
59407;BME280;45208;32.616;-115.472;2022-07-24T05:18:14;100677.31;;;32.95;46.05
59407;BME280;45208;32.616;-115.472;2022-07-24T05:20:42;100672.56;;;32.88;46.53
59407;BME280;45208;32.616;-115.472;2022-07-24T05:23:08;100678.25;;;32.81;46.71
59407;BME280;45208;32.616;-115.472;2022-07-24T05:25:35;100678.25;;;32.78;46.73
59407;BME280;45208;32.616;-115.472;2022-07-24T05:28:02;100680.78;;;32.68;47.15
59407;BME280;45208;32.616;-115.472;2022-07-24T05:30:29;100663.88;;;32.68;46.90
59407;BME280;45208;32.616;-115.472;2022-07-24T05:32:55;100684.84;;;32.60;47.33
59407;BME280;45208;32.616;-115.472;2022-07-24T05:35:23;100675.25;;;32.58;47.05
59407;BME280;45208;32.616;-115.472;2022-07-24T05:37:50;100664.88;;;32.51;47.60
59407;BME280;45208;32.616;-115.472;2022-07-24T05:40:16;100670.53;;;32.44;48.41
59407;BME280;45208;32.616;-115.472;2022-07-24T05:42:43;100672.13;;;32.45;48.74
59407;BME280;45208;32.616;-115.472;2022-07-24T05:45:10;100666.53;;;32.41;48.75
59407;BME280;45208;32.616;-115.472;2022-07-24T05:47:38;100658.56;;;32.36;48.97
59407;BME280;45208;32.616;-115.472;2022-07-24T05:50:09;100673.44;;;32.37;49.13
59407;BME280;45208;32.616;-115.472;2022-07-24T05:52:37;100673.47;;;32.30;49.44
59407;BME280;45208;32.616;-115.472;2022-07-24T05:55:04;100679.50;;;32.25;49.40
59407;BME280;45208;32.616;-115.472;2022-07-24T05:57:31;100671.97;;;32.14;50.87
59407;BME280;45208;32.616;-115.472;2022-07-24T05:59:58;100678.81;;;32.10;51.41
59407;BME280;45208;32.616;-115.472;2022-07-24T06:02:25;100674.03;;;32.07;51.82
59407;BME280;45208;32.616;-115.472;2022-07-24T06:04:52;100676.47;;;32.01;52.74
59407;BME280;45208;32.616;-115.472;2022-07-24T06:07:19;100676.13;;;31.92;54.27
59407;BME280;45208;32.616;-115.472;2022-07-24T06:09:46;100675.31;;;31.95;53.72
59407;BME280;45208;32.616;-115.472;2022-07-24T06:12:18;100676.66;;;31.73;54.94
59407;BME280;45208;32.616;-115.472;2022-07-24T06:14:45;100676.25;;;31.71;54.95
59407;BME280;45208;32.616;-115.472;2022-07-24T06:17:14;100677.88;;;31.65;55.33
59407;BME280;45208;32.616;-115.472;2022-07-24T06:19:43;100672.69;;;31.63;55.70
59407;BME280;45208;32.616;-115.472;2022-07-24T06:22:10;100684.72;;;31.64;56.92
59407;BME280;45208;32.616;-115.472;2022-07-24T06:24:36;100680.31;;;31.63;57.63
59407;BME280;45208;32.616;-115.472;2022-07-24T06:27:03;100693.59;;;31.51;58.30
59407;BME280;45208;32.616;-115.472;2022-07-24T06:29:31;100706.41;;;31.60;58.64
59407;BME280;45208;32.616;-115.472;2022-07-24T06:31:58;100698.03;;;31.49;59.48
59407;BME280;45208;32.616;-115.472;2022-07-24T06:34:25;100685.66;;;31.32;60.14
59407;BME280;45208;32.616;-115.472;2022-07-24T06:36:52;100694.09;;;31.32;60.21
59407;BME280;45208;32.616;-115.472;2022-07-24T06:39:18;100698.09;;;31.35;60.66
59407;BME280;45208;32.616;-115.472;2022-07-24T06:41:45;100689.69;;;31.27;61.72
59407;BME280;45208;32.616;-115.472;2022-07-24T06:44:23;100694.50;;;31.16;61.85
59407;BME280;45208;32.616;-115.472;2022-07-24T06:46:50;100697.75;;;31.18;61.92
59407;BME280;45208;32.616;-115.472;2022-07-24T06:49:17;100706.56;;;31.10;62.86
59407;BME280;45208;32.616;-115.472;2022-07-24T06:51:44;100705.75;;;31.13;63.18
59407;BME280;45208;32.616;-115.472;2022-07-24T06:54:11;100708.97;;;31.15;63.36
59407;BME280;45208;32.616;-115.472;2022-07-24T06:56:37;100707.38;;;31.10;64.31
59407;BME280;45208;32.616;-115.472;2022-07-24T06:59:04;100704.97;;;31.02;64.94
59407;BME280;45208;32.616;-115.472;2022-07-24T07:01:31;100713.84;;;30.89;66.25
59407;BME280;45208;32.616;-115.472;2022-07-24T07:03:57;100709.84;;;30.90;66.80
59407;BME280;45208;32.616;-115.472;2022-07-24T07:06:24;100723.03;;;30.86;67.36
59407;BME280;45208;32.616;-115.472;2022-07-24T07:08:51;100709.03;;;30.83;67.34
59407;BME280;45208;32.616;-115.472;2022-07-24T07:11:18;100713.03;;;30.78;67.60
59407;BME280;45208;32.616;-115.472;2022-07-24T07:13:45;100704.22;;;30.76;68.81
59407;BME280;45208;32.616;-115.472;2022-07-24T07:16:12;100707.06;;;30.73;68.91
59407;BME280;45208;32.616;-115.472;2022-07-24T07:18:38;100700.22;;;30.66;69.41
59407;BME280;45208;32.616;-115.472;2022-07-24T07:21:05;100692.22;;;30.54;69.69
59407;BME280;45208;32.616;-115.472;2022-07-24T07:23:32;100697.00;;;30.61;70.24
59407;BME280;45208;32.616;-115.472;2022-07-24T07:25:59;100697.41;;;30.59;70.57
59407;BME280;45208;32.616;-115.472;2022-07-24T07:28:25;100697.81;;;30.58;70.38
59407;BME280;45208;32.616;-115.472;2022-07-24T07:30:52;100696.63;;;30.55;70.73
59407;BME280;45208;32.616;-115.472;2022-07-24T07:33:19;100687.38;;;30.58;70.64
59407;BME280;45208;32.616;-115.472;2022-07-24T07:35:46;100688.19;;;30.52;70.81
59407;BME280;45208;32.616;-115.472;2022-07-24T07:38:12;100683.38;;;30.45;70.93
59407;BME280;45208;32.616;-115.472;2022-07-24T07:40:39;100688.19;;;30.45;70.62
59407;BME280;45208;32.616;-115.472;2022-07-24T07:43:06;100690.59;;;30.39;71.67
59407;BME280;45208;32.616;-115.472;2022-07-24T07:45:32;100688.19;;;30.48;72.39
59407;BME280;45208;32.616;-115.472;2022-07-24T07:48:00;100684.59;;;30.44;72.84
59407;BME280;45208;32.616;-115.472;2022-07-24T07:50:26;100689.41;;;30.44;73.47
59407;BME280;45208;32.616;-115.472;2022-07-24T07:52:53;100684.59;;;30.41;72.73
59407;BME280;45208;32.616;-115.472;2022-07-24T07:55:22;100697.41;;;30.38;73.64
59407;BME280;45208;32.616;-115.472;2022-07-24T07:57:49;100679.38;;;30.21;73.34
59407;BME280;45208;32.616;-115.472;2022-07-24T08:00:17;100684.19;;;30.24;74.06
59407;BME280;45208;32.616;-115.472;2022-07-24T08:02:45;100694.19;;;30.25;74.20
59407;BME280;45208;32.616;-115.472;2022-07-24T08:05:12;100690.59;;;30.28;74.18
59407;BME280;45208;32.616;-115.472;2022-07-24T08:07:39;100694.59;;;30.31;73.90
59407;BME280;45208;32.616;-115.472;2022-07-24T08:10:09;100691.41;;;30.25;73.88
59407;BME280;45208;32.616;-115.472;2022-07-24T08:12:36;100691.81;;;30.20;74.40
59407;BME280;45208;32.616;-115.472;2022-07-24T08:15:03;100690.59;;;30.28;75.14
59407;BME280;45208;32.616;-115.472;2022-07-24T08:17:30;100671.34;;;30.16;75.05
59407;BME280;45208;32.616;-115.472;2022-07-24T08:19:57;100690.56;;;30.14;76.15
59407;BME280;45208;32.616;-115.472;2022-07-24T08:22:23;100686.59;;;30.19;76.27
59407;BME280;45208;32.616;-115.472;2022-07-24T08:24:50;100689.78;;;30.24;76.79
59407;BME280;45208;32.616;-115.472;2022-07-24T08:27:17;100694.59;;;30.17;77.13
59407;BME280;45208;32.616;-115.472;2022-07-24T08:29:43;100694.97;;;30.12;77.45
59407;BME280;45208;32.616;-115.472;2022-07-24T08:32:10;100701.78;;;30.11;77.77
59407;BME280;45208;32.616;-115.472;2022-07-24T08:34:37;100679.34;;;30.00;78.29
59407;BME280;45208;32.616;-115.472;2022-07-24T08:37:03;100690.56;;;30.00;77.95
59407;BME280;45208;32.616;-115.472;2022-07-24T08:39:30;100694.19;;;30.04;78.36
59407;BME280;45208;32.616;-115.472;2022-07-24T08:41:57;100690.97;;;30.05;78.66
59407;BME280;45208;32.616;-115.472;2022-07-24T08:44:23;100694.13;;;29.97;78.82
59407;BME280;45208;32.616;-115.472;2022-07-24T08:46:53;100686.91;;;29.96;79.33
59407;BME280;45208;32.616;-115.472;2022-07-24T08:49:21;100684.16;;;29.99;79.50
59407;BME280;45208;32.616;-115.472;2022-07-24T08:51:49;100685.72;;;29.90;80.37
59407;BME280;45208;32.616;-115.472;2022-07-24T08:54:17;100688.91;;;29.81;80.18
59407;BME280;45208;32.616;-115.472;2022-07-24T08:56:44;100683.69;;;29.76;80.73
59407;BME280;45208;32.616;-115.472;2022-07-24T08:59:21;100694.13;;;29.86;80.43
59407;BME280;45208;32.616;-115.472;2022-07-24T09:01:50;100663.25;;;29.68;80.73
59407;BME280;45208;32.616;-115.472;2022-07-24T09:07:10;100684.50;;;29.84;80.77
59407;BME280;45208;32.616;-115.472;2022-07-24T09:09:38;100676.91;;;29.81;81.04
59407;BME280;45208;32.616;-115.472;2022-07-24T09:12:10;100680.50;;;29.81;80.63
59407;BME280;45208;32.616;-115.472;2022-07-24T09:14:41;100681.28;;;29.74;81.15
59407;BME280;45208;32.616;-115.472;2022-07-24T09:17:13;100685.66;;;29.72;80.92
59407;BME280;45208;32.616;-115.472;2022-07-24T09:19:57;100690.47;;;29.78;81.13
59407;BME280;45208;32.616;-115.472;2022-07-24T09:22:25;100692.09;;;29.76;80.60
59407;BME280;45208;32.616;-115.472;2022-07-24T09:27:54;100676.88;;;29.66;81.24
59407;BME280;45208;32.616;-115.472;2022-07-24T09:30:44;100676.88;;;29.70;81.85
59407;BME280;45208;32.616;-115.472;2022-07-24T09:38:12;100680.84;;;29.62;82.65
59407;BME280;45208;32.616;-115.472;2022-07-24T09:40:49;100680.81;;;29.58;82.65
59407;BME280;45208;32.616;-115.472;2022-07-24T09:43:30;100682.03;;;29.57;82.11
59407;BME280;45208;32.616;-115.472;2022-07-24T09:46:00;100683.22;;;29.56;82.77
59407;BME280;45208;32.616;-115.472;2022-07-24T09:48:32;100688.00;;;29.52;82.73
59407;BME280;45208;32.616;-115.472;2022-07-24T09:51:19;100680.00;;;29.47;82.75
59407;BME280;45208;32.616;-115.472;2022-07-24T09:53:52;100678.78;;;29.44;83.50
59407;BME280;45208;32.616;-115.472;2022-07-24T09:56:19;100679.94;;;29.43;83.76
59407;BME280;45208;32.616;-115.472;2022-07-24T10:01:16;100685.53;;;29.43;84.42
59407;BME280;45208;32.616;-115.472;2022-07-24T10:03:44;100678.31;;;29.35;83.03
59407;BME280;45208;32.616;-115.472;2022-07-24T10:06:13;100690.31;;;29.36;84.23
59407;BME280;45208;32.616;-115.472;2022-07-24T10:08:42;100670.28;;;29.27;84.97
59407;BME280;45208;32.616;-115.472;2022-07-24T10:11:10;100683.91;;;29.35;85.14
59407;BME280;45208;32.616;-115.472;2022-07-24T10:13:37;100683.13;;;29.35;84.98
59407;BME280;45208;32.616;-115.472;2022-07-24T10:21:29;100689.53;;;29.35;85.02
59407;BME280;45208;32.616;-115.472;2022-07-24T10:26:39;100684.25;;;29.19;84.82
59407;BME280;45208;32.616;-115.472;2022-07-24T10:29:14;100683.06;;;29.24;84.94
59407;BME280;45208;32.616;-115.472;2022-07-24T10:48:33;100699.81;;;29.13;84.62
59407;BME280;45208;32.616;-115.472;2022-07-24T10:51:10;100701.41;;;29.14;84.84
59407;BME280;45208;32.616;-115.472;2022-07-24T10:56:23;100707.41;;;29.09;85.09
59407;BME280;45208;32.616;-115.472;2022-07-24T11:01:49;100715.00;;;29.09;85.10
59407;BME280;45208;32.616;-115.472;2022-07-24T11:09:25;100712.03;;;28.87;84.63
59407;BME280;45208;32.616;-115.472;2022-07-24T11:14:23;100728.44;;;28.89;84.19
59407;BME280;45208;32.616;-115.472;2022-07-24T11:16:50;100730.91;;;28.98;85.29
59407;BME280;45208;32.616;-115.472;2022-07-24T11:21:45;100742.06;;;28.94;85.12
59407;BME280;45208;32.616;-115.472;2022-07-24T11:24:16;100755.28;;;28.97;84.93
59407;BME280;45208;32.616;-115.472;2022-07-24T11:29:21;100757.66;;;28.92;85.39
59407;BME280;45208;32.616;-115.472;2022-07-24T11:32:00;100749.97;;;28.85;84.85
59407;BME280;45208;32.616;-115.472;2022-07-24T11:34:28;100752.34;;;28.83;85.40
59407;BME280;45208;32.616;-115.472;2022-07-24T11:36:56;100764.31;;;28.80;85.89
59407;BME280;45208;32.616;-115.472;2022-07-24T11:39:29;100756.69;;;28.77;85.92
59407;BME280;45208;32.616;-115.472;2022-07-24T11:42:00;100765.91;;;28.77;86.38
59407;BME280;45208;32.616;-115.472;2022-07-24T11:44:41;100781.88;;;28.77;86.09
59407;BME280;45208;32.616;-115.472;2022-07-24T11:47:21;100779.09;;;28.77;86.46
59407;BME280;45208;32.616;-115.472;2022-07-24T11:54:53;100785.06;;;28.75;86.46
59407;BME280;45208;32.616;-115.472;2022-07-24T11:57:29;100787.41;;;28.70;86.52
59407;BME280;45208;32.616;-115.472;2022-07-24T11:59:57;100784.59;;;28.70;86.34
59407;BME280;45208;32.616;-115.472;2022-07-24T12:02:24;100788.19;;;28.70;86.93
59407;BME280;45208;32.616;-115.472;2022-07-24T12:04:52;100784.19;;;28.68;87.31
59407;BME280;45208;32.616;-115.472;2022-07-24T12:07:23;100772.13;;;28.56;86.78
59407;BME280;45208;32.616;-115.472;2022-07-24T12:09:56;100781.75;;;28.63;87.52
59407;BME280;45208;32.616;-115.472;2022-07-24T12:12:33;100784.94;;;28.61;87.85
59407;BME280;45208;32.616;-115.472;2022-07-24T12:17:34;100793.31;;;28.57;86.79
59407;BME280;45208;32.616;-115.472;2022-07-24T12:20:02;100796.03;;;28.54;87.50
59407;BME280;45208;32.616;-115.472;2022-07-24T12:22:32;100804.00;;;28.52;87.32
59407;BME280;45208;32.616;-115.472;2022-07-24T12:24:59;100805.63;;;28.53;88.05
59407;BME280;45208;32.616;-115.472;2022-07-24T12:27:43;100812.78;;;28.50;88.02
59407;BME280;45208;32.616;-115.472;2022-07-24T12:30:29;100816.78;;;28.49;88.18
59407;BME280;45208;32.616;-115.472;2022-07-24T12:35:24;100815.59;;;28.50;87.84
59407;BME280;45208;32.616;-115.472;2022-07-24T12:37:52;100816.78;;;28.49;87.83
59407;BME280;45208;32.616;-115.472;2022-07-24T12:40:27;100825.94;;;28.46;87.49
59407;BME280;45208;32.616;-115.472;2022-07-24T12:42:59;100822.78;;;28.51;88.45
59407;BME280;45208;32.616;-115.472;2022-07-24T12:45:26;100827.53;;;28.47;87.79
59407;BME280;45208;32.616;-115.472;2022-07-24T12:48:28;100824.78;;;28.51;88.37
59407;BME280;45208;32.616;-115.472;2022-07-24T12:53:32;100838.34;;;28.49;88.33
59407;BME280;45208;32.616;-115.472;2022-07-24T12:56:04;100838.34;;;28.49;88.72
59407;BME280;45208;32.616;-115.472;2022-07-24T12:59:00;100838.34;;;28.49;89.12
59407;BME280;45208;32.616;-115.472;2022-07-24T13:01:52;100837.47;;;28.41;88.06
59407;BME280;45208;32.616;-115.472;2022-07-24T13:04:21;100844.31;;;28.47;88.53
59407;BME280;45208;32.616;-115.472;2022-07-24T13:06:54;100847.91;;;28.48;88.01
59407;BME280;45208;32.616;-115.472;2022-07-24T13:09:21;100847.13;;;28.47;88.60
59407;BME280;45208;32.616;-115.472;2022-07-24T13:11:50;100838.25;;;28.38;89.47
59407;BME280;45208;32.616;-115.472;2022-07-24T13:14:18;100852.72;;;28.47;89.86
59407;BME280;45208;32.616;-115.472;2022-07-24T13:16:48;100855.16;;;28.52;88.83
59407;BME280;45208;32.616;-115.472;2022-07-24T13:19:15;100854.41;;;28.55;89.08
59407;BME280;45208;32.616;-115.472;2022-07-24T13:21:43;100864.81;;;28.58;88.35
59407;BME280;45208;32.616;-115.472;2022-07-24T13:24:12;100874.81;;;28.59;87.43
59407;BME280;45208;32.616;-115.472;2022-07-24T13:26:41;100880.84;;;28.65;87.79
59407;BME280;45208;32.616;-115.472;2022-07-24T13:29:08;100875.66;;;28.64;87.30
59407;BME280;45208;32.616;-115.472;2022-07-24T13:31:35;100876.88;;;28.66;86.91
59407;BME280;45208;32.616;-115.472;2022-07-24T13:34:02;100875.28;;;28.69;87.40
59407;BME280;45208;32.616;-115.472;2022-07-24T13:36:28;100885.69;;;28.72;87.51